Time;durP1;ratioP1;P1;durP2;ratioP2;P2;SDS_P1;SDS_P2;PMS_P1;PMS_P2;Temp;Humidity;BMP_temperature;BMP_pressure;BME280_temperature;BME280_humidity;BME280_pressure;Samples;Min_cycle;Max_cycle;Signal;HPM_P1;HPM_P2
2022/12/16 00:00:04;;;;;;;65.97;37.55;;;-1.20;99.90;;;;;;6191513;23;20020;-92
2022/12/16 00:17:33;;;;;;;;;;;;;;;;;;;;;
2022/12/16 00:21:28;;;;;;;;;;;;;;;;;;;;;
2022/12/16 00:31:52;;;;;;;51.63;31.30;;;-0.70;99.90;;;;;;6125883;23;20024;-91
2022/12/16 00:34:58;;;;;;;44.90;27.65;;;-0.60;99.90;;;;;;6127158;23;20028;-90
2022/12/16 00:38:07;;;;;;;;;;;;;;;;;;;;;
2022/12/16 00:41:56;;;;;;;42.35;22.88;;;0.70;99.90;;;;;;6214066;23;20020;-90
2022/12/16 00:44:38;;;;;;;;;;;;;;;;;;;;;
2022/12/16 00:54:09;;;;;;;;;;;;;;;;;;;;;
2022/12/16 00:57:37;;;;;;;22.23;10.38;;;0.00;99.90;;;;;;6210851;23;20063;-91
2022/12/16 01:10:26;;;;;;;19.42;7.55;;;0.20;99.90;;;;;;6169353;23;20028;-92
2022/12/16 01:13:05;;;;;;;15.90;6.85;;;0.60;99.90;;;;;;6159996;23;20114;-92
2022/12/16 01:15:59;;;;;;;11.57;6.38;;;0.20;99.90;;;;;;6184301;23;20016;-93
2022/12/16 01:19:39;;;;;;;18.42;7.05;;;1.80;99.90;;;;;;6165239;23;20071;-93
2022/12/16 01:22:15;;;;;;;20.20;7.28;;;1.70;99.90;;;;;;6184152;23;20095;-92
2022/12/16 01:25:09;;;;;;;11.32;5.80;;;1.50;99.90;;;;;;6090691;23;20034;-93
2022/12/16 01:34:37;;;;;;;;;;;;;;;;;;;;;
2022/12/16 01:37:15;;;;;;;11.20;5.70;;;-0.10;99.90;;;;;;6148312;23;20103;-94
2022/12/16 01:43:21;;;;;;;10.48;5.45;;;0.70;99.90;;;;;;6172721;23;20095;-94
2022/12/16 01:46:37;;;;;;;20.15;6.00;;;2.00;99.90;;;;;;6188737;23;20024;-94
2022/12/16 01:52:34;;;;;;;;;;;;;;;;;;;;;
2022/12/16 01:55:38;;;;;;;9.85;4.32;;;0.60;99.90;;;;;;6212988;23;20070;-96
2022/12/16 01:58:41;;;;;;;8.90;5.00;;;1.80;99.90;;;;;;6187757;23;20099;-95
2022/12/16 02:01:12;;;;;;;10.95;4.95;;;0.80;99.90;;;;;;6140368;23;20020;-96
2022/12/16 02:03:43;;;;;;;8.80;4.63;;;1.50;99.90;;;;;;6214935;23;20059;-95
2022/12/16 02:06:35;;;;;;;13.27;4.80;;;2.00;99.90;;;;;;6189931;23;20099;-95
2022/12/16 02:09:09;;;;;;;9.07;5.20;;;0.70;99.90;;;;;;6189223;23;20052;-95
2022/12/16 02:12:22;;;;;;;10.77;4.72;;;1.80;99.90;;;;;;6214737;23;20078;-95
2022/12/16 02:15:14;;;;;;;9.23;4.00;;;0.80;99.90;;;;;;6213552;23;20020;-93
2022/12/16 02:18:09;;;;;;;5.43;4.00;;;0.90;99.90;;;;;;6189186;23;20325;-95
2022/12/16 02:20:49;;;;;;;;;;;;;;;;;;;;;
2022/12/16 02:23:25;;;;;;;12.80;3.83;;;1.00;99.90;;;;;;6214331;23;20503;-94
2022/12/16 02:26:15;;;;;;;10.45;3.40;;;0.50;99.90;;;;;;6189592;23;20054;-95
2022/12/16 02:28:53;;;;;;;9.27;3.72;;;0.90;99.90;;;;;;6190428;22;20043;-95
2022/12/16 02:31:25;;;;;;;8.80;3.50;;;1.10;99.90;;;;;;6191497;23;20076;-94
2022/12/16 02:34:15;;;;;;;7.57;3.58;;;2.00;99.90;;;;;;6191102;23;20061;-96
2022/12/16 02:36:59;;;;;;;8.68;3.60;;;2.50;99.90;;;;;;6190766;23;20016;-94
2022/12/16 02:39:37;;;;;;;9.80;3.88;;;1.20;99.90;;;;;;6190330;23;20016;-94
2022/12/16 02:42:20;;;;;;;7.60;3.38;;;2.50;99.90;;;;;;6190252;23;20119;-94
2022/12/16 02:45:09;;;;;;;7.10;3.30;;;1.30;99.90;;;;;;6190374;23;20012;-95
2022/12/16 02:47:38;;;;;;;7.07;3.40;;;1.40;99.90;;;;;;6191625;23;20027;-94
2022/12/16 02:50:14;;;;;;;8.30;4.13;;;2.00;99.90;;;;;;6190071;23;20110;-96
2022/12/16 02:52:40;;;;;;;9.70;3.90;;;1.40;99.90;;;;;;6191424;23;20055;-94
2022/12/16 02:55:08;;;;;;;8.02;4.05;;;2.20;99.90;;;;;;6189406;23;20016;-95
2022/12/16 02:58:03;;;;;;;9.23;4.47;;;1.90;99.90;;;;;;6216445;23;20055;-96
2022/12/16 03:00:39;;;;;;;9.00;4.82;;;1.40;99.90;;;;;;6190688;23;20035;-95
2022/12/16 03:03:11;;;;;;;12.82;5.90;;;0.60;99.90;;;;;;6216064;23;20016;-96
2022/12/16 03:05:46;;;;;;;10.10;6.43;;;1.50;99.90;;;;;;6190937;23;20116;-96
2022/12/16 03:08:16;;;;;;;13.75;7.50;;;2.40;99.90;;;;;;6190688;23;20016;-95
2022/12/16 03:10:50;;;;;;;12.15;7.57;;;1.30;99.90;;;;;;6191423;23;20023;-96
2022/12/16 03:13:18;;;;;;;19.98;8.98;;;2.60;99.90;;;;;;6191685;23;20016;-94
2022/12/16 03:15:46;;;;;;;13.18;9.23;;;1.60;99.90;;;;;;6190248;23;20016;-95
2022/12/16 03:18:14;;;;;;;15.95;10.38;;;2.50;99.90;;;;;;6190349;23;20016;-94
2022/12/16 03:20:48;;;;;;;20.30;12.80;;;2.70;99.90;;;;;;6190517;23;20100;-94
2022/12/16 03:23:19;;;;;;;21.45;13.75;;;1.60;99.90;;;;;;6190548;23;20081;-95
2022/12/16 03:25:49;;;;;;;23.70;15.18;;;2.80;99.90;;;;;;6189033;23;20012;-94
2022/12/16 03:28:25;;;;;;;25.00;17.02;;;2.50;99.90;;;;;;6190786;23;20119;-94
2022/12/16 03:30:58;;;;;;;25.75;17.50;;;1.70;99.90;;;;;;6189682;23;20020;-95
2022/12/16 03:33:29;;;;;;;30.63;19.85;;;2.70;99.90;;;;;;6215413;23;20016;-94
2022/12/16 03:36:00;;;;;;;36.97;21.65;;;2.50;99.90;;;;;;6190442;23;20395;-96
2022/12/16 03:38:27;;;;;;;32.95;22.15;;;2.50;99.90;;;;;;6214701;23;20020;-94
2022/12/16 03:40:54;;;;;;;36.78;23.42;;;1.50;99.90;;;;;;6190354;23;20016;-95
2022/12/16 03:43:21;;;;;;;43.55;25.80;;;2.20;99.90;;;;;;6189645;23;20322;-96
2022/12/16 03:45:52;;;;;;;45.08;27.30;;;2.50;99.90;;;;;;6216572;23;20016;-96
2022/12/16 03:48:22;;;;;;;39.75;27.17;;;1.60;99.90;;;;;;6191480;23;20103;-94
2022/12/16 03:50:47;;;;;;;45.22;29.10;;;1.30;99.90;;;;;;6216717;23;20083;-96
2022/12/16 03:53:13;;;;;;;41.05;27.75;;;2.20;99.90;;;;;;6216422;23;20452;-94
2022/12/16 03:55:39;;;;;;;46.42;29.08;;;2.50;99.90;;;;;;6214744;23;20016;-95
2022/12/16 03:58:05;;;;;;;46.22;29.25;;;2.00;99.90;;;;;;6215192;23;20107;-96
2022/12/16 04:00:31;;;;;;;51.63;30.25;;;1.50;99.90;;;;;;6215207;23;20020;-94
2022/12/16 04:02:56;;;;;;;47.53;32.33;;;1.20;99.90;;;;;;6215143;23;20133;-95
2022/12/16 04:05:22;;;;;;;52.13;31.52;;;2.30;99.90;;;;;;6215604;23;20020;-95
2022/12/16 04:07:48;;;;;;;53.45;33.55;;;1.70;99.90;;;;;;6215186;23;20039;-95
2022/12/16 04:10:13;;;;;;;54.03;32.05;;;1.00;99.90;;;;;;6213955;23;20098;-95
2022/12/16 04:29:20;;;;;;;70.95;38.08;;;0.70;99.90;;;;;;6214127;23;20016;-95
2022/12/16 04:31:46;;;;;;;66.05;38.15;;;1.90;99.90;;;;;;6214762;23;20548;-95
2022/12/16 04:34:28;;;;;;;72.85;39.42;;;1.60;99.90;;;;;;6214044;23;20340;-95
